Time;durP1;ratioP1;P1;durP2;ratioP2;P2;SDS_P1;SDS_P2;PMS_P1;PMS_P2;Temp;Humidity;BMP_temperature;BMP_pressure;BME280_temperature;BME280_humidity;BME280_pressure;Samples;Min_cycle;Max_cycle;Signal;HPM_P1;HPM_P2
2022/04/18 00:00:36;;;;;;;;;;;9.50;91.70;;;;;;5131911;27;19915;-73
2022/04/18 00:03:03;;;;;;;;;;;9.50;91.70;;;;;;5150550;27;19907;-73
2022/04/18 00:05:33;;;;;;;;;;;9.40;91.80;;;;;;5150534;27;19908;-73
2022/04/18 00:07:59;;;;;;;;;;;9.40;91.80;;;;;;5150508;27;19922;-73
2022/04/18 00:10:25;;;;;;;;;;;9.30;91.80;;;;;;5150452;27;19952;-73
2022/04/18 00:12:51;;;;;;;;;;;9.30;91.80;;;;;;5150339;27;19948;-74
2022/04/18 00:15:16;;;;;;;;;;;9.20;91.90;;;;;;5150374;27;19960;-73
2022/04/18 00:17:43;;;;;;;;;;;9.20;91.90;;;;;;5132095;27;19918;-73
2022/04/18 00:20:09;;;;;;;;;;;9.20;91.90;;;;;;5150004;27;19911;-74
2022/04/18 00:22:35;;;;;;;;;;;9.10;91.90;;;;;;5131576;27;19921;-73
2022/04/18 00:25:01;;;;;;;;;;;9.10;92.00;;;;;;5150467;27;19907;-73
2022/04/18 00:27:26;;;;;;;;;;;9.10;92.00;;;;;;5150150;27;20024;-74
2022/04/18 00:29:52;;;;;;;;;;;9.00;92.00;;;;;;5150141;27;20382;-73
2022/04/18 00:32:18;;;;;;;;;;;9.00;92.10;;;;;;5150211;27;20329;-73
2022/04/18 00:34:43;;;;;;;;;;;9.00;92.10;;;;;;5131262;27;20011;-74
2022/04/18 00:37:09;;;;;;;;;;;9.00;92.10;;;;;;5131402;27;20289;-74
2022/04/18 00:39:35;;;;;;;;;;;8.90;92.20;;;;;;5149877;27;19960;-74
2022/04/18 00:42:00;;;;;;;;;;;8.90;92.30;;;;;;5150028;27;20275;-73
2022/04/18 00:44:26;;;;;;;;;;;8.90;92.30;;;;;;5149793;27;19910;-74
2022/04/18 00:46:51;;;;;;;;;;;8.80;92.40;;;;;;5149763;27;19915;-73
2022/04/18 00:49:17;;;;;;;;;;;8.80;92.40;;;;;;5131156;27;19911;-74
2022/04/18 00:51:43;;;;;;;;;;;8.80;92.50;;;;;;5149833;27;19939;-74
2022/04/18 00:54:10;;;;;;;;;;;8.80;92.50;;;;;;5149734;27;19907;-73
2022/04/18 00:56:36;;;;;;;;;;;8.70;92.50;;;;;;5149623;27;20150;-74
2022/04/18 00:59:01;;;;;;;;;;;8.70;92.60;;;;;;5131131;27;19911;-74
2022/04/18 01:01:27;;;;;;;;;;;8.70;92.70;;;;;;5149647;27;20397;-74
2022/04/18 01:03:53;;;;;;;;;;;8.60;92.60;;;;;;5131154;27;19912;-74
2022/04/18 01:06:18;;;;;;;;;;;8.60;92.70;;;;;;5149633;27;19911;-73
2022/04/18 01:08:46;;;;;;;;;;;8.60;92.80;;;;;;5150256;27;19911;-74
2022/04/18 01:11:11;;;;;;;;;;;8.50;92.80;;;;;;5150598;27;19907;-74
2022/04/18 01:13:44;;;;;;;;;;;8.50;92.90;;;;;;5153951;27;20412;-73
2022/04/18 01:16:09;;;;;;;;;;;8.40;92.90;;;;;;5153863;27;19908;-73
2022/04/18 01:18:35;;;;;;;;;;;8.40;93.00;;;;;;5153853;27;20320;-74
2022/04/18 01:21:02;;;;;;;;;;;8.40;93.00;;;;;;5153839;27;19907;-73
2022/04/18 01:23:27;;;;;;;;;;;8.30;93.00;;;;;;5135153;27;19933;-73
2022/04/18 01:31:21;;;;;;;;;;;8.20;93.20;;;;;;5154041;27;19918;-73
2022/04/18 01:33:47;;;;;;;;;;;8.20;93.30;;;;;;5153515;27;20380;-74
2022/04/18 01:36:12;;;;;;;;;;;8.20;93.30;;;;;;5153295;27;20381;-74
2022/04/18 01:38:38;;;;;;;;;;;8.10;93.30;;;;;;5153391;27;20369;-74
2022/04/18 01:41:04;;;;;;;;;;;8.10;93.30;;;;;;5134805;27;20388;-73
2022/04/18 01:43:29;;;;;;;;;;;8.10;93.40;;;;;;5153350;27;19907;-74
2022/04/18 01:45:55;;;;;;;;;;;8.00;93.40;;;;;;5153323;27;19915;-73
2022/04/18 01:48:20;;;;;;;;;;;8.00;93.40;;;;;;5153204;27;20413;-73
2022/04/18 01:50:46;;;;;;;;;;;8.00;93.50;;;;;;5153278;27;19911;-73
2022/04/18 01:53:12;;;;;;;;;;;8.00;93.50;;;;;;5153140;27;20017;-74
2022/04/18 01:55:37;;;;;;;;;;;8.00;93.50;;;;;;5153152;27;19915;-74
2022/04/18 01:58:05;;;;;;;;;;;7.90;93.50;;;;;;5153175;27;19914;-74
2022/04/18 02:00:32;;;;;;;;;;;8.00;93.60;;;;;;5153092;27;19919;-74
2022/04/18 02:02:57;;;;;;;;;;;7.90;93.60;;;;;;5134239;27;19909;-73
2022/04/18 02:05:23;;;;;;;;;;;7.90;93.60;;;;;;5153047;27;19930;-73
2022/04/18 02:07:48;;;;;;;;;;;7.90;93.70;;;;;;5152944;27;20281;-74
2022/04/18 02:10:14;;;;;;;;;;;7.90;93.70;;;;;;5152832;27;19911;-74
2022/04/18 02:12:40;;;;;;;;;;;7.80;93.70;;;;;;5152726;27;20370;-74
2022/04/18 02:15:06;;;;;;;;;;;7.80;93.70;;;;;;5153143;27;19911;-73
2022/04/18 02:17:32;;;;;;;;;;;7.80;93.70;;;;;;5152535;27;19915;-74
2022/04/18 02:19:57;;;;;;;;;;;7.80;93.80;;;;;;5152718;27;19961;-74
2022/04/18 02:22:23;;;;;;;;;;;7.80;93.80;;;;;;5133080;27;19912;-74
2022/04/18 02:24:49;;;;;;;;;;;7.80;93.80;;;;;;5152156;27;20005;-73
2022/04/18 02:27:15;;;;;;;;;;;7.80;93.80;;;;;;5134147;27;19911;-74
2022/04/18 02:29:41;;;;;;;;;;;7.80;93.90;;;;;;5152460;27;19911;-74
2022/04/18 02:34:51;;;;;;;;;;;7.80;94.00;;;;;;5136981;27;19950;-74
2022/04/18 02:37:17;;;;;;;;;;;7.70;94.00;;;;;;5133658;27;20388;-74
2022/04/18 02:39:42;;;;;;;;;;;7.70;94.00;;;;;;5152575;27;19915;-74
2022/04/18 02:42:08;;;;;;;;;;;7.70;94.10;;;;;;5152277;27;19915;-74
2022/04/18 02:44:34;;;;;;;;;;;7.70;94.10;;;;;;5152201;27;19911;-74
2022/04/18 02:46:59;;;;;;;;;;;7.70;94.10;;;;;;5152233;27;20352;-73
2022/04/18 02:49:25;;;;;;;;;;;7.70;94.00;;;;;;5152240;27;19907;-74
2022/04/18 02:51:50;;;;;;;;;;;7.70;94.00;;;;;;5133617;27;19979;-74
2022/04/18 02:54:16;;;;;;;;;;;7.80;94.10;;;;;;5151852;27;19962;-74
2022/04/18 02:56:41;;;;;;;;;;;7.80;94.10;;;;;;5152065;27;19911;-74
2022/04/18 02:59:07;;;;;;;;;;;7.80;94.10;;;;;;5151810;27;19967;-73
2022/04/18 03:01:32;;;;;;;;;;;7.80;94.10;;;;;;5151727;27;20376;-74
2022/04/18 03:03:58;;;;;;;;;;;7.80;94.10;;;;;;5151815;27;19922;-74
2022/04/18 03:06:24;;;;;;;;;;;7.80;94.10;;;;;;5116223;27;19915;-74
2022/04/18 03:08:49;;;;;;;;;;;7.90;94.10;;;;;;5152023;27;20353;-74
2022/04/18 03:11:15;;;;;;;;;;;7.90;94.10;;;;;;5151795;27;19915;-73
2022/04/18 03:13:44;;;;;;;;;;;7.80;94.00;;;;;;5151507;27;20395;-74
2022/04/18 03:16:10;;;;;;;;;;;7.90;94.10;;;;;;5132911;27;19911;-74
2022/04/18 03:18:36;;;;;;;;;;;7.90;94.00;;;;;;5151376;27;19919;-74
2022/04/18 03:21:03;;;;;;;;;;;7.90;94.10;;;;;;5151478;27;20372;-73
2022/04/18 03:23:28;;;;;;;;;;;7.80;94.00;;;;;;5151304;27;19907;-74
2022/04/18 03:25:54;;;;;;;;;;;7.80;94.00;;;;;;5151423;27;19930;-74
2022/04/18 03:28:20;;;;;;;;;;;7.80;94.10;;;;;;5151774;27;20002;-74
2022/04/18 03:30:46;;;;;;;;;;;7.80;94.10;;;;;;5151423;27;20363;-74
2022/04/18 03:33:12;;;;;;;;;;;7.90;94.20;;;;;;5151457;27;19911;-74
2022/04/18 03:35:37;;;;;;;;;;;7.90;94.20;;;;;;5150577;27;19919;-74
2022/04/18 03:40:47;;;;;;;;;;;7.90;94.20;;;;;;5151365;27;19926;-74
2022/04/18 03:43:13;;;;;;;;;;;7.90;94.20;;;;;;5150953;27;19911;-74
2022/04/18 03:45:38;;;;;;;;;;;7.90;94.20;;;;;;5150997;27;20273;-73
2022/04/18 03:48:04;;;;;;;;;;;7.90;94.20;;;;;;5150835;27;20048;-74
2022/04/18 03:50:30;;;;;;;;;;;8.00;94.20;;;;;;5150841;27;19915;-74
2022/04/18 03:52:55;;;;;;;;;;;7.90;94.10;;;;;;5150840;27;19922;-74
2022/04/18 03:55:21;;;;;;;;;;;7.90;94.10;;;;;;5150746;27;19911;-74
2022/04/18 03:57:46;;;;;;;;;;;7.90;94.10;;;;;;5150776;27;19911;-74
2022/04/18 04:00:12;;;;;;;;;;;7.90;94.10;;;;;;5150656;27;19950;-74
2022/04/18 04:02:38;;;;;;;;;;;8.00;94.20;;;;;;5132090;27;19955;-74
2022/04/18 04:05:04;;;;;;;;;;;7.90;94.10;;;;;;5150637;27;20257;-74
2022/04/18 04:07:29;;;;;;;;;;;8.00;94.20;;;;;;5132045;27;19911;-74
2022/04/18 04:09:55;;;;;;;;;;;7.90;94.20;;;;;;5131979;27;20289;-74
2022/04/18 04:12:24;;;;;;;;;;;8.00;94.20;;;;;;5131880;27;19907;-74
2022/04/18 04:14:51;;;;;;;;;;;8.00;94.10;;;;;;5150392;27;20456;-74
2022/04/18 04:17:16;;;;;;;;;;;8.00;94.10;;;;;;5150393;27;20391;-74
2022/04/18 04:19:44;;;;;;;;;;;8.00;94.10;;;;;;5150227;27;19911;-74
2022/04/18 04:22:10;;;;;;;;;;;8.00;94.10;;;;;;5150471;27;20250;-74
2022/04/18 04:24:35;;;;;;;;;;;7.90;94.10;;;;;;5131670;27;20130;-74
2022/04/18 04:27:01;;;;;;;;;;;7.90;94.10;;;;;;5150413;27;20361;-73
2022/04/18 04:29:26;;;;;;;;;;;7.90;94.10;;;;;;5150359;27;19915;-73
2022/04/18 04:31:52;;;;;;;;;;;7.90;94.10;;;;;;5150160;27;19919;-74
2022/04/18 04:34:17;;;;;;;;;;;7.90;94.00;;;;;;5150091;27;19907;-74
2022/04/18 04:36:43;;;;;;;;;;;7.90;94.00;;;;;;5149875;27;19972;-73
2022/04/18 04:39:09;;;;;;;;;;;7.90;94.00;;;;;;5149896;27;19915;-74
2022/04/18 04:41:35;;;;;;;;;;;7.80;93.90;;;;;;5150137;27;20377;-74
2022/04/18 04:44:01;;;;;;;;;;;7.80;93.90;;;;;;5149981;27;20297;-74
2022/04/18 04:46:27;;;;;;;;;;;7.80;93.90;;;;;;5130740;27;19926;-74
2022/04/18 04:48:53;;;;;;;;;;;7.80;94.00;;;;;;5131235;27;20012;-74
2022/04/18 04:51:18;;;;;;;;;;;7.80;94.00;;;;;;5149923;27;19998;-74
2022/04/18 04:53:44;;;;;;;;;;;7.70;94.00;;;;;;5149720;27;20268;-74
2022/04/18 04:56:10;;;;;;;;;;;7.70;94.00;;;;;;5149965;27;19952;-74
2022/04/18 04:58:35;;;;;;;;;;;7.70;94.00;;;;;;5149705;27;19966;-74
2022/04/18 05:01:01;;;;;;;;;;;7.70;94.00;;;;;;5149692;27;20009;-74
2022/04/18 05:03:27;;;;;;;;;;;7.70;94.00;;;;;;5149647;27;20339;-74
2022/04/18 05:05:53;;;;;;;;;;;7.70;94.00;;;;;;5149741;27;19942;-74
2022/04/18 05:08:18;;;;;;;;;;;7.70;94.00;;;;;;5149766;27;19942;-74
2022/04/18 05:10:44;;;;;;;;;;;7.80;94.00;;;;;;5149572;27;20361;-74
2022/04/18 05:13:09;;;;;;;;;;;7.80;94.00;;;;;;5131047;27;20355;-74
2022/04/18 05:15:35;;;;;;;;;;;7.80;94.00;;;;;;5149684;27;20422;-74
2022/04/18 05:18:01;;;;;;;;;;;7.80;94.00;;;;;;5149595;27;19953;-73
2022/04/18 05:20:27;;;;;;;;;;;7.80;94.00;;;;;;5149733;27;19919;-74
2022/04/18 05:22:53;;;;;;;;;;;7.80;93.90;;;;;;5149456;27;19907;-74
2022/04/18 05:25:20;;;;;;;;;;;7.90;93.90;;;;;;5149567;27;19943;-74
2022/04/18 05:27:46;;;;;;;;;;;7.90;93.90;;;;;;5149468;27;20039;-74
2022/04/18 05:30:12;;;;;;;;;;;7.90;93.90;;;;;;5130947;27;20452;-74
2022/04/18 05:32:37;;;;;;;;;;;7.90;93.90;;;;;;5149546;27;19911;-74
2022/04/18 05:35:03;;;;;;;;;;;7.90;93.90;;;;;;5130635;27;19930;-74
2022/04/18 05:37:29;;;;;;;;;;;7.90;93.90;;;;;;5149518;27;19915;-73
2022/04/18 05:39:54;;;;;;;;;;;7.90;93.90;;;;;;5149295;27;19915;-74
2022/04/18 05:42:23;;;;;;;;;;;7.90;93.90;;;;;;5149285;27;19911;-74
2022/04/18 05:44:50;;;;;;;;;;;7.90;93.80;;;;;;5129718;27;20387;-74
2022/04/18 05:47:16;;;;;;;;;;;7.90;93.80;;;;;;5149262;27;20442;-74
2022/04/18 05:49:41;;;;;;;;;;;7.90;93.80;;;;;;5149189;27;20541;-74
2022/04/18 05:52:07;;;;;;;;;;;7.90;93.80;;;;;;5149371;27;19915;-74
2022/04/18 05:54:33;;;;;;;;;;;7.90;93.80;;;;;;5130624;27;19961;-74
2022/04/18 05:57:01;;;;;;;;;;;8.00;93.80;;;;;;5149802;27;20282;-74
2022/04/18 05:59:27;;;;;;;;;;;8.00;93.80;;;;;;5153180;27;19921;-73
2022/04/18 06:01:52;;;;;;;;;;;8.10;93.80;;;;;;5134506;27;20018;-74
2022/04/18 06:04:18;;;;;;;;;;;8.10;93.80;;;;;;5152939;27;19911;-74
2022/04/18 06:06:44;;;;;;;;;;;8.10;93.70;;;;;;5152884;27;19964;-74
2022/04/18 06:09:09;;;;;;;;;;;8.10;93.70;;;;;;5134323;27;19911;-74
2022/04/18 06:11:35;;;;;;;;;;;8.20;93.70;;;;;;5153105;27;20380;-74
2022/04/18 06:14:01;;;;;;;;;;;8.20;93.70;;;;;;5152744;27;20395;-74
2022/04/18 06:16:26;;;;;;;;;;;8.20;93.70;;;;;;5152788;27;20499;-73
2022/04/18 06:18:52;;;;;;;;;;;8.20;93.70;;;;;;5133876;27;20437;-74
2022/04/18 06:21:17;;;;;;;;;;;8.30;93.70;;;;;;5152411;27;19918;-73
2022/04/18 06:23:43;;;;;;;;;;;8.40;93.70;;;;;;5134009;27;19954;-74
2022/04/18 06:26:08;;;;;;;;;;;8.40;93.70;;;;;;5152605;27;20026;-74
2022/04/18 06:28:34;;;;;;;;;;;8.50;93.70;;;;;;5152466;27;19911;-74
2022/04/18 06:30:59;;;;;;;;;;;8.50;93.70;;;;;;5134134;27;19999;-74
2022/04/18 06:33:25;;;;;;;;;;;8.70;93.70;;;;;;5152328;27;20327;-74
2022/04/18 06:35:51;;;;;;;;;;;8.80;93.70;;;;;;5151999;27;20296;-74
2022/04/18 06:38:17;;;;;;;;;;;8.90;93.60;;;;;;5152258;27;20017;-74
2022/04/18 06:40:43;;;;;;;;;;;9.00;93.50;;;;;;5152112;27;19923;-74
2022/04/18 06:43:09;;;;;;;;;;;9.10;93.50;;;;;;5152205;27;19907;-74
2022/04/18 06:45:34;;;;;;;;;;;9.20;93.40;;;;;;5152058;27;20097;-74
2022/04/18 06:48:00;;;;;;;;;;;9.20;93.30;;;;;;5133637;27;20391;-74
2022/04/18 06:50:25;;;;;;;;;;;9.30;93.30;;;;;;5152036;27;20292;-74
2022/04/18 06:52:51;;;;;;;;;;;9.30;93.30;;;;;;5151836;27;19925;-74
2022/04/18 06:55:16;;;;;;;;;;;9.30;93.30;;;;;;5116276;27;20325;-74
2022/04/18 06:57:42;;;;;;;;;;;9.30;93.30;;;;;;5152002;27;20000;-74
2022/04/18 07:00:08;;;;;;;;;;;9.40;93.20;;;;;;5152785;27;19915;-75
2022/04/18 07:02:34;;;;;;;;;;;9.30;93.20;;;;;;5151633;27;19955;-74
2022/04/18 07:04:59;;;;;;;;;;;9.30;93.20;;;;;;5151726;27;19907;-74
2022/04/18 07:07:25;;;;;;;;;;;9.30;93.20;;;;;;5133111;27;19930;-74
2022/04/18 07:09:50;;;;;;;;;;;9.30;93.10;;;;;;5150683;27;19930;-74
2022/04/18 07:12:22;;;;;;;;;;;9.30;93.20;;;;;;5151569;27;19915;-74
2022/04/18 07:14:48;;;;;;;;;;;9.30;93.20;;;;;;5151715;27;20347;-73
2022/04/18 07:17:14;;;;;;;;;;;9.30;93.30;;;;;;5151448;27;20038;-74
2022/04/18 07:19:40;;;;;;;;;;;9.30;93.30;;;;;;5132721;27;19990;-73
2022/04/18 07:22:07;;;;;;;;;;;9.40;93.30;;;;;;5132722;27;19911;-73
2022/04/18 07:24:33;;;;;;;;;;;9.40;93.20;;;;;;5151256;27;19917;-74
2022/04/18 07:27:01;;;;;;;;;;;9.50;93.10;;;;;;5151321;27;20005;-74
2022/04/18 07:29:26;;;;;;;;;;;9.50;93.20;;;;;;5151034;27;20006;-74
2022/04/18 07:31:52;;;;;;;;;;;9.60;93.20;;;;;;5151037;27;20002;-74
2022/04/18 07:34:18;;;;;;;;;;;9.70;93.40;;;;;;5151003;27;19914;-74
2022/04/18 07:36:43;;;;;;;;;;;10.00;93.50;;;;;;5151063;27;20408;-74
2022/04/18 07:39:09;;;;;;;;;;;10.30;93.40;;;;;;5150894;27;19919;-74
2022/04/18 07:41:34;;;;;;;;;;;10.60;93.30;;;;;;5132583;27;19919;-74
2022/04/18 07:44:01;;;;;;;;;;;11.00;93.10;;;;;;5150843;27;19946;-74
2022/04/18 07:46:27;;;;;;;;;;;11.30;92.90;;;;;;5150359;27;20163;-74
2022/04/18 07:48:53;;;;;;;;;;;11.60;92.80;;;;;;5150452;27;19915;-74
2022/04/18 07:51:35;;;;;;;;;;;11.80;92.50;;;;;;5150689;27;19911;-74
2022/04/18 07:54:01;;;;;;;;;;;12.00;92.30;;;;;;5150878;27;19931;-74
2022/04/18 07:56:27;;;;;;;;;;;12.20;92.10;;;;;;5150240;27;19949;-73
2022/04/18 07:58:53;;;;;;;;;;;12.40;92.20;;;;;;5150621;27;20311;-72
2022/04/18 08:01:19;;;;;;;;;;;12.80;92.20;;;;;;5150334;27;20093;-74
2022/04/18 08:03:45;;;;;;;;;;;13.40;92.20;;;;;;5150359;27;19953;-74
2022/04/18 08:06:11;;;;;;;;;;;14.20;92.60;;;;;;5150388;27;19907;-73
2022/04/18 08:08:36;;;;;;;;;;;15.20;92.10;;;;;;5150062;27;19960;-74
2022/04/18 08:11:02;;;;;;;;;;;15.70;91.10;;;;;;5150218;27;20023;-74
2022/04/18 08:13:28;;;;;;;;;;;16.00;90.80;;;;;;5131497;27;19916;-74
2022/04/18 08:15:54;;;;;;;;;;;16.30;91.00;;;;;;5131555;27;19922;-74
2022/04/18 08:18:20;;;;;;;;;;;16.50;90.70;;;;;;5149957;27;19927;-72
2022/04/18 08:20:46;;;;;;;;;;;16.60;90.30;;;;;;5149885;27;19924;-72
2022/04/18 08:23:11;;;;;;;;;;;16.70;90.00;;;;;;5149303;27;20325;-72
2022/04/18 08:25:37;;;;;;;;;;;16.70;88.80;;;;;;5150017;27;19911;-71
2022/04/18 08:28:02;;;;;;;;;;;16.50;87.90;;;;;;5149809;27;19915;-72
2022/04/18 08:30:28;;;;;;;;;;;16.20;86.40;;;;;;5130716;27;19915;-72
2022/04/18 08:32:54;;;;;;;;;;;16.00;87.60;;;;;;5149746;27;19914;-71
2022/04/18 08:35:20;;;;;;;;;;;16.20;87.80;;;;;;5149513;27;20398;-72
2022/04/18 08:37:46;;;;;;;;;;;16.60;87.00;;;;;;5131159;27;19966;-72
2022/04/18 08:40:11;;;;;;;;;;;16.80;87.10;;;;;;5149708;27;20006;-71
2022/04/18 08:42:38;;;;;;;;;;;17.20;88.30;;;;;;5149600;27;20006;-72
2022/04/18 08:45:06;;;;;;;;;;;17.90;86.90;;;;;;5131052;27;20277;-71
2022/04/18 08:53:01;;;;;;;;;;;21.40;89.00;;;;;;5149393;27;20622;-72
2022/04/18 08:55:27;;;;;;;;;;;22.20;85.20;;;;;;5149686;27;19984;-71
2022/04/18 08:57:53;;;;;;;;;;;22.20;83.10;;;;;;5130468;27;19911;-72
2022/04/18 09:00:18;;;;;;;;;;;22.20;82.30;;;;;;5149275;27;20030;-72
2022/04/18 09:02:44;;;;;;;;;;;22.40;81.00;;;;;;5149304;27;19915;-72
2022/04/18 09:05:11;;;;;;;;;;;22.70;80.50;;;;;;5149153;27;19918;-72
2022/04/18 09:07:36;;;;;;;;;;;23.00;78.70;;;;;;5130455;27;20370;-72
2022/04/18 09:10:02;;;;;;;;;;;23.40;79.00;;;;;;5148933;27;19918;-72
2022/04/18 09:12:28;;;;;;;;;;;23.80;78.20;;;;;;5148977;27;20232;-72
2022/04/18 09:14:54;;;;;;;;;;;24.00;76.70;;;;;;5148816;27;19907;-72
2022/04/18 09:17:26;;;;;;;;;;;23.80;73.70;;;;;;5148770;27;20014;-72
2022/04/18 09:20:02;;;;;;;;;;;23.30;73.10;;;;;;5148726;27;19951;-72
2022/04/18 09:22:28;;;;;;;;;;;22.60;73.00;;;;;;5148733;27;19911;-71
2022/04/18 09:24:54;;;;;;;;;;;22.30;75.50;;;;;;5148548;27;19963;-72
2022/04/18 09:27:32;;;;;;;;;;;22.30;76.70;;;;;;5148948;27;20262;-73
2022/04/18 09:30:03;;;;;;;;;;;22.30;74.10;;;;;;5148915;27;20229;-72
2022/04/18 09:32:29;;;;;;;;;;;21.60;72.70;;;;;;5131602;27;19951;-72
2022/04/18 09:35:01;;;;;;;;;;;20.60;71.10;;;;;;5152919;27;19915;-72
2022/04/18 09:37:30;;;;;;;;;;;19.60;71.50;;;;;;5152583;27;20391;-72
2022/04/18 09:39:56;;;;;;;;;;;18.70;72.60;;;;;;5152532;27;20017;-72
2022/04/18 09:42:23;;;;;;;;;;;18.00;73.80;;;;;;5152851;27;20044;-72
2022/04/18 09:44:49;;;;;;;;;;;17.50;74.90;;;;;;5152496;27;19907;-72
2022/04/18 09:47:19;;;;;;;;;;;17.20;75.40;;;;;;5152764;27;19928;-74
2022/04/18 09:49:45;;;;;;;;;;;16.90;75.10;;;;;;5152548;27;19907;-72
2022/04/18 09:52:11;;;;;;;;;;;16.60;75.50;;;;;;5152022;27;19907;-72
2022/04/18 09:54:49;;;;;;;;;;;16.40;75.80;;;;;;5152163;27;20408;-72
2022/04/18 09:57:26;;;;;;;;;;;16.10;76.20;;;;;;5152379;27;19911;-72
2022/04/18 09:59:53;;;;;;;;;;;16.00;76.20;;;;;;5133761;27;19936;-73
2022/04/18 10:02:19;;;;;;;;;;;15.70;76.60;;;;;;5152499;27;20150;-73
2022/04/18 10:04:44;;;;;;;;;;;15.50;75.80;;;;;;5152436;27;19915;-73
2022/04/18 10:07:12;;;;;;;;;;;15.60;77.10;;;;;;5152387;27;19907;-73
2022/04/18 10:09:39;;;;;;;;;;;16.50;79.10;;;;;;5152332;27;19907;-73
2022/04/18 10:12:06;;;;;;;;;;;17.30;78.10;;;;;;5152419;27;20273;-73
2022/04/18 10:14:32;;;;;;;;;;;17.60;77.60;;;;;;5152398;27;19969;-73
2022/04/18 10:16:59;;;;;;;;;;;18.10;78.10;;;;;;5151943;27;20372;-73
2022/04/18 10:19:43;;;;;;;;;;;18.30;76.90;;;;;;5151763;27;20269;-73
2022/04/18 10:22:27;;;;;;;;;;;18.10;75.00;;;;;;5152110;27;19907;-72
2022/04/18 10:24:53;;;;;;;;;;;17.60;74.70;;;;;;5152019;27;19914;-73
2022/04/18 10:27:37;;;;;;;;;;;17.10;74.10;;;;;;5151453;27;19911;-73
2022/04/18 10:30:04;;;;;;;;;;;16.60;74.30;;;;;;5133121;27;20368;-73
2022/04/18 10:32:31;;;;;;;;;;;16.30;74.70;;;;;;5151602;27;19907;-72
2022/04/18 10:34:58;;;;;;;;;;;16.30;75.70;;;;;;5151255;27;19911;-73
2022/04/18 10:37:25;;;;;;;;;;;17.10;76.90;;;;;;5151585;27;19967;-73
2022/04/18 10:39:58;;;;;;;;;;;17.80;75.90;;;;;;5132364;27;19919;-73
2022/04/18 10:42:34;;;;;;;;;;;18.50;75.20;;;;;;5152725;27;19918;-74
2022/04/18 10:45:08;;;;;;;;;;;19.40;75.60;;;;;;5150978;27;19911;-73
2022/04/18 10:47:52;;;;;;;;;;;20.00;73.20;;;;;;5152390;27;20026;-74
2022/04/18 10:50:18;;;;;;;;;;;20.60;73.30;;;;;;5152602;27;19914;-73
2022/04/18 10:53:03;;;;;;;;;;;21.50;73.60;;;;;;5152225;27;19911;-74
2022/04/18 10:55:28;;;;;;;;;;;22.40;74.80;;;;;;5133527;27;19998;-74
2022/04/18 10:58:12;;;;;;;;;;;23.70;74.90;;;;;;5152115;27;20577;-74
2022/04/18 11:00:47;;;;;;;;;;;24.60;73.60;;;;;;5151602;27;19911;-74
2022/04/18 11:03:13;;;;;;;;;;;25.30;71.50;;;;;;5151423;27;20277;-74
2022/04/18 11:05:39;;;;;;;;;;;25.60;67.70;;;;;;5151172;27;19932;-74
2022/04/18 11:08:21;;;;;;;;;;;25.80;69.20;;;;;;5151351;27;19933;-74
2022/04/18 11:10:47;;;;;;;;;;;26.20;70.00;;;;;;5150872;27;20372;-74
2022/04/18 11:13:13;;;;;;;;;;;27.10;71.30;;;;;;5151005;27;19911;-74
2022/04/18 11:15:38;;;;;;;;;;;28.00;72.20;;;;;;5151906;27;19993;-75
2022/04/18 11:18:08;;;;;;;;;;;28.70;71.40;;;;;;5151752;27;19922;-74
2022/04/18 11:20:35;;;;;;;;;;;29.00;69.80;;;;;;5151128;27;19911;-74
2022/04/18 11:23:20;;;;;;;;;;;29.20;69.90;;;;;;5130932;27;20310;-74
2022/04/18 11:25:51;;;;;;;;;;;29.30;68.30;;;;;;5150007;27;19918;-74
2022/04/18 11:28:17;;;;;;;;;;;29.10;64.70;;;;;;5150154;27;19917;-74
2022/04/18 11:30:43;;;;;;;;;;;28.80;64.50;;;;;;5150069;27;19921;-74
2022/04/18 11:33:08;;;;;;;;;;;28.90;64.10;;;;;;5149939;27;19911;-74
2022/04/18 11:35:34;;;;;;;;;;;28.60;63.00;;;;;;5149488;27;20346;-74
2022/04/18 11:38:06;;;;;;;;;;;28.30;63.30;;;;;;5147987;27;19918;-74
2022/04/18 11:40:35;;;;;;;;;;;27.80;61.80;;;;;;5147592;27;19923;-74
2022/04/18 11:43:01;;;;;;;;;;;27.00;58.70;;;;;;5147817;27;19907;-74
2022/04/18 11:45:27;;;;;;;;;;;26.60;60.80;;;;;;5129790;27;19918;-74
2022/04/18 11:47:53;;;;;;;;;;;26.80;62.60;;;;;;5148342;27;20114;-74
2022/04/18 11:50:22;;;;;;;;;;;27.00;60.80;;;;;;5148150;27;20009;-74
2022/04/18 11:52:48;;;;;;;;;;;26.30;60.00;;;;;;5148846;27;19907;-73
2022/04/18 11:55:15;;;;;;;;;;;25.20;59.30;;;;;;5148908;27;19967;-73
2022/04/18 11:57:41;;;;;;;;;;;24.10;59.90;;;;;;5149472;27;19922;-73
2022/04/18 12:00:09;;;;;;;;;;;23.10;60.10;;;;;;5149158;27;19934;-73
2022/04/18 12:08:05;;;;;;;;;;;21.90;60.90;;;;;;5149610;27;19953;-73
2022/04/18 12:10:31;;;;;;;;;;;21.60;61.60;;;;;;5149300;27;19968;-74
2022/04/18 12:12:58;;;;;;;;;;;21.20;61.30;;;;;;5149487;27;20315;-74
2022/04/18 12:15:25;;;;;;;;;;;20.60;61.20;;;;;;5149397;27;19924;-72
2022/04/18 12:17:52;;;;;;;;;;;20.50;63.30;;;;;;5130471;27;20433;-74
2022/04/18 12:20:28;;;;;;;;;;;21.50;65.20;;;;;;5130127;27;19915;-74
2022/04/18 12:23:00;;;;;;;;;;;22.40;65.30;;;;;;5148836;27;19907;-73
2022/04/18 12:25:27;;;;;;;;;;;23.30;65.90;;;;;;5148916;27;19998;-74
2022/04/18 12:27:54;;;;;;;;;;;23.90;65.80;;;;;;5148461;27;19914;-74
2022/04/18 12:30:19;;;;;;;;;;;23.80;64.70;;;;;;5148970;27;20365;-74
2022/04/18 12:32:47;;;;;;;;;;;23.70;65.10;;;;;;5148724;27;19914;-74
2022/04/18 12:35:35;;;;;;;;;;;24.20;65.70;;;;;;5148702;27;19921;-74
2022/04/18 12:38:02;;;;;;;;;;;24.60;63.90;;;;;;5149115;27;20451;-74
2022/04/18 12:40:32;;;;;;;;;;;24.40;63.20;;;;;;5148828;27;19922;-73
2022/04/18 12:43:03;;;;;;;;;;;24.00;62.00;;;;;;5148852;27;19911;-73
2022/04/18 12:45:40;;;;;;;;;;;23.70;60.40;;;;;;5148646;27;19907;-74
2022/04/18 12:48:05;;;;;;;;;;;24.00;61.40;;;;;;5148639;27;19912;-73
2022/04/18 12:50:33;;;;;;;;;;;24.70;60.90;;;;;;5148705;27;19907;-74
2022/04/18 12:52:59;;;;;;;;;;;25.10;60.40;;;;;;5148710;27;19968;-73
2022/04/18 12:55:26;;;;;;;;;;;24.90;59.40;;;;;;5148324;27;20481;-72
2022/04/18 12:57:52;;;;;;;;;;;24.20;58.40;;;;;;5148201;27;20273;-73
2022/04/18 13:00:17;;;;;;;;;;;23.40;57.80;;;;;;5148361;27;19915;-73
2022/04/18 13:02:59;;;;;;;;;;;22.70;58.10;;;;;;5148552;27;19917;-72
2022/04/18 13:05:28;;;;;;;;;;;22.00;58.60;;;;;;5148712;27;20281;-72
2022/04/18 13:08:13;;;;;;;;;;;21.20;58.90;;;;;;5147807;27;20038;-73
2022/04/18 13:10:38;;;;;;;;;;;20.60;59.30;;;;;;5148728;27;19907;-73
2022/04/18 13:13:06;;;;;;;;;;;20.20;60.30;;;;;;5148900;27;19922;-73
2022/04/18 13:15:32;;;;;;;;;;;20.00;61.10;;;;;;5130205;27;20003;-73
2022/04/18 13:18:18;;;;;;;;;;;19.90;62.30;;;;;;5148509;27;19922;-73
2022/04/18 13:20:44;;;;;;;;;;;20.10;63.00;;;;;;5148064;27;19962;-73
2022/04/18 13:23:10;;;;;;;;;;;20.30;63.00;;;;;;5148616;27;19938;-73
2022/04/18 13:25:36;;;;;;;;;;;20.40;62.70;;;;;;5129981;27;20598;-73
2022/04/18 13:28:07;;;;;;;;;;;20.50;63.10;;;;;;5129471;27;20017;-73
2022/04/18 13:30:39;;;;;;;;;;;20.60;63.20;;;;;;5148413;27;20134;-73
2022/04/18 13:33:08;;;;;;;;;;;20.70;62.70;;;;;;5129617;27;19907;-73
2022/04/18 13:36:30;;;;;;;;;;;20.70;62.90;;;;;;5147830;27;20257;-73
2022/04/18 13:38:21;;;;;;;;;;;20.50;61.40;;;;;;5148018;27;19919;-73
2022/04/18 13:40:46;;;;;;;;;;;20.20;60.10;;;;;;5129697;27;20300;-73
2022/04/18 13:43:14;;;;;;;;;;;19.90;59.80;;;;;;5148053;27;19915;-73
2022/04/18 13:45:40;;;;;;;;;;;19.60;59.60;;;;;;5129486;27;19911;-72
2022/04/18 13:48:06;;;;;;;;;;;19.40;59.40;;;;;;5148183;27;20034;-72
2022/04/18 13:50:31;;;;;;;;;;;19.10;58.70;;;;;;5148223;27;20357;-73
2022/04/18 13:52:57;;;;;;;;;;;18.90;59.10;;;;;;5148415;27;19947;-73
2022/04/18 13:55:23;;;;;;;;;;;18.60;59.20;;;;;;5148647;27;20273;-72
2022/04/18 13:57:48;;;;;;;;;;;18.40;59.50;;;;;;5129648;27;19911;-72
2022/04/18 14:00:14;;;;;;;;;;;18.30;59.70;;;;;;5148243;27;19938;-73
2022/04/18 14:02:40;;;;;;;;;;;18.30;60.20;;;;;;5147994;27;19919;-72
2022/04/18 14:05:05;;;;;;;;;;;18.40;60.30;;;;;;5148114;27;19925;-72
2022/04/18 14:07:31;;;;;;;;;;;18.30;59.80;;;;;;5129412;27;19946;-74
2022/04/18 14:09:57;;;;;;;;;;;18.20;59.90;;;;;;5147255;27;19975;-73
2022/04/18 14:12:23;;;;;;;;;;;17.90;59.50;;;;;;5148085;27;19911;-74
2022/04/18 14:20:28;;;;;;;;;;;16.80;59.50;;;;;;5151600;27;19957;-73
2022/04/18 14:22:54;;;;;;;;;;;16.30;59.80;;;;;;5151805;27;19991;-74
2022/04/18 14:25:21;;;;;;;;;;;15.90;60.10;;;;;;5151580;27;19911;-74
2022/04/18 14:27:46;;;;;;;;;;;15.70;60.70;;;;;;5151834;27;19911;-73
2022/04/18 14:30:13;;;;;;;;;;;15.60;61.00;;;;;;5151800;27;19911;-74
2022/04/18 14:32:47;;;;;;;;;;;15.60;61.50;;;;;;5152028;27;20437;-73
2022/04/18 14:35:14;;;;;;;;;;;15.60;61.70;;;;;;5151654;27;19907;-74
2022/04/18 14:37:41;;;;;;;;;;;15.60;61.80;;;;;;5151364;27;19915;-74
2022/04/18 14:40:07;;;;;;;;;;;15.70;62.30;;;;;;5132729;27;20027;-74
2022/04/18 14:42:33;;;;;;;;;;;16.00;62.70;;;;;;5151279;27;19912;-74
2022/04/18 14:44:59;;;;;;;;;;;16.30;63.00;;;;;;5151031;27;20314;-74
2022/04/18 14:47:25;;;;;;;;;;;16.50;62.90;;;;;;5150984;27;19954;-74
2022/04/18 14:49:50;;;;;;;;;;;16.60;62.60;;;;;;5150854;27;20022;-74